Time;durP1;ratioP1;P1;durP2;ratioP2;P2;SDS_P1;SDS_P2;PMS_P1;PMS_P2;Temp;Humidity;BMP_temperature;BMP_pressure;BME280_temperature;BME280_humidity;BME280_pressure;Samples;Min_cycle;Max_cycle;Signal;HPM_P1;HPM_P2
2023/01/10 00:01:24;;;;;;;23.87;8.87;;;;;;;4.52;nan;-23942.75;5013370;28;20245;-73
2023/01/10 07:09:31;;;;;;;50.23;10.83;;;;;;;4.28;nan;-23936.06;5150823;22;20249;-75
2023/01/10 07:11:57;;;;;;;44.80;11.40;;;;;;;3.99;nan;-23927.81;5058324;28;20689;-74
2023/01/10 07:14:22;;;;;;;38.37;10.13;;;;;;;4.24;nan;-23934.91;5069622;28;20557;-75
2023/01/10 07:16:48;;;;;;;43.97;13.13;;;;;;;4.43;nan;-23940.34;5072990;28;20298;-75
2023/01/10 07:19:14;;;;;;;30.33;11.50;;;;;;;4.50;nan;-23942.19;5073705;28;20173;-75
2023/01/10 07:21:40;;;;;;;43.73;11.10;;;;;;;4.43;nan;-23940.34;5073652;28;20581;-74
2023/01/10 07:24:06;;;;;;;38.37;11.87;;;;;;;4.52;nan;-23942.59;5073196;28;20308;-75
2023/01/10 07:26:32;;;;;;;57.57;12.57;;;;;;;4.40;nan;-23939.47;5072578;28;20213;-74
2023/01/10 07:28:57;;;;;;;41.80;10.93;;;;;;;4.60;nan;-23944.88;5074378;28;20204;-72
2023/01/10 07:31:23;;;;;;;34.17;11.90;;;;;;;4.49;nan;-23941.91;5076905;28;20162;-74
2023/01/10 07:33:50;;;;;;;36.47;10.03;;;;;;;4.48;nan;-23941.63;5073290;28;20284;-74
2023/01/10 07:36:16;;;;;;;28.33;10.57;;;;;;;4.66;nan;-23946.59;5073420;28;20170;-75
2023/01/10 07:38:42;;;;;;;31.70;10.13;;;;;;;4.54;nan;-23943.19;5072705;28;20178;-74
2023/01/10 07:41:07;;;;;;;43.13;11.13;;;;;;;4.62;nan;-23945.59;5073348;28;20628;-74
2023/01/10 07:43:33;;;;;;;31.17;9.60;;;;;;;4.21;nan;-23933.94;5072844;28;20289;-74
2023/01/10 07:46:09;;;;;;;25.03;10.10;;;;;;;4.18;nan;-23933.06;5073025;28;20551;-74
2023/01/10 07:48:35;;;;;;;30.30;8.63;;;;;;;4.47;nan;-23941.31;5072918;28;20173;-75
2023/01/10 07:51:01;;;;;;;36.13;10.00;;;;;;;4.57;nan;-23944.19;5072766;28;20159;-75
2023/01/10 07:53:27;;;;;;;31.83;9.57;;;;;;;4.54;nan;-23943.31;5052655;28;20670;-74
2023/01/10 07:55:57;;;;;;;33.67;8.20;;;;;;;4.76;nan;-23949.44;5052793;28;20551;-74
2023/01/10 07:58:22;;;;;;;26.90;7.87;;;;;;;4.59;nan;-23944.59;5052446;28;20625;-74
2023/01/10 08:03:17;;;;;;;29.10;9.30;;;;;;;4.81;nan;-23950.84;5008887;28;20282;-72
2023/01/10 08:05:43;;;;;;;36.00;10.93;;;;;;;4.82;nan;-23951.28;5010636;28;20180;-72
2023/01/10 08:08:11;;;;;;;35.20;13.80;;;;;;;4.24;nan;-23934.78;4993391;28;20169;-73
2023/01/10 08:10:37;;;;;;;28.67;11.77;;;;;;;4.34;nan;-23937.63;5011029;28;20180;-73
2023/01/10 08:13:03;;;;;;;36.27;14.13;;;;;;;4.65;nan;-23946.44;5013009;28;20214;-74
2023/01/10 08:15:29;;;;;;;56.23;14.57;;;;;;;4.49;nan;-23941.75;5012139;28;20259;-72
2023/01/10 08:17:58;;;;;;;42.57;14.43;;;;;;;4.16;nan;-23932.63;5012404;28;20551;-73
2023/01/10 08:20:23;;;;;;;36.33;13.43;;;;;;;4.23;nan;-23934.50;5012657;28;20311;-73
2023/01/10 08:22:48;;;;;;;48.53;13.83;;;;;;;4.57;nan;-23944.19;5012664;28;20279;-73
2023/01/10 08:25:14;;;;;;;36.67;12.47;;;;;;;4.38;nan;-23938.91;5012331;28;20179;-72
2023/01/10 08:27:39;;;;;;;51.17;14.53;;;;;;;4.13;nan;-23931.66;5012641;28;20176;-73
2023/01/10 08:30:05;;;;;;;33.67;11.37;;;;;;;4.04;nan;-23929.09;5012286;28;20176;-73
2023/01/10 08:32:30;;;;;;;33.87;13.07;;;;;;;4.37;nan;-23938.63;5012231;28;20172;-73
2023/01/10 08:34:56;;;;;;;30.67;12.90;;;;;;;4.50;nan;-23942.03;5011844;28;20210;-71
2023/01/10 08:37:22;;;;;;;27.63;12.53;;;;;;;4.22;nan;-23934.34;5011318;28;20539;-74
2023/01/10 08:39:47;;;;;;;32.03;11.77;;;;;;;4.06;nan;-23929.78;5011736;28;20535;-74
2023/01/10 08:42:13;;;;;;;55.87;14.83;;;;;;;4.13;nan;-23931.78;5011796;28;20279;-73
2023/01/10 08:44:38;;;;;;;34.30;11.53;;;;;;;4.39;nan;-23939.19;5011748;28;20555;-75
2023/01/10 08:47:03;;;;;;;47.13;13.53;;;;;;;3.95;nan;-23926.66;5012037;28;20167;-74
2023/01/10 08:49:29;;;;;;;36.50;12.67;;;;;;;4.20;nan;-23933.78;5012055;28;20178;-73
2023/01/10 08:51:54;;;;;;;33.60;12.13;;;;;;;4.34;nan;-23937.78;4650560;28;20889;-74
2023/01/10 08:54:20;;;;;;;36.03;12.10;;;;;;;4.34;nan;-23937.78;4337830;28;20761;-73
2023/01/10 08:56:45;;;;;;;50.07;13.77;;;;;;;4.31;nan;-23936.91;4934994;28;20188;-74
2023/01/10 08:59:10;;;;;;;32.70;12.07;;;;;;;3.99;nan;-23927.94;5011536;28;20183;-73
2023/01/10 09:01:36;;;;;;;31.17;12.27;;;;;;;4.29;nan;-23936.19;5017132;28;20740;-73
2023/01/10 09:04:01;;;;;;;37.60;11.03;;;;;;;3.91;nan;-23925.53;5031579;28;20217;-73
2023/01/10 09:06:27;;;;;;;32.33;11.10;;;;;;;4.47;nan;-23941.31;5031718;28;20576;-73
2023/01/10 09:08:52;;;;;;;29.97;10.47;;;;;;;4.44;nan;-23940.63;5031502;28;20198;-72
2023/01/10 09:11:18;;;;;;;28.43;10.07;;;;;;;4.27;nan;-23935.63;5031627;28;20275;-73
2023/01/10 09:13:43;;;;;;;27.30;10.47;;;;;;;4.70;nan;-23947.88;5031707;28;20555;-74
2023/01/10 09:16:09;;;;;;;27.80;10.13;;;;;;;4.58;nan;-23944.31;5031706;28;20172;-74
2023/01/10 09:18:35;;;;;;;34.73;10.77;;;;;;;4.16;nan;-23932.63;5031594;28;20168;-73
2023/01/10 09:21:01;;;;;;;23.27;10.47;;;;;;;4.49;nan;-23941.75;5031437;28;20179;-73
2023/01/10 09:23:27;;;;;;;32.67;10.63;;;;;;;4.25;nan;-23935.22;5031089;28;20708;-74
2023/01/10 09:25:54;;;;;;;31.77;10.83;;;;;;;4.47;nan;-23941.19;5031460;28;20202;-73
2023/01/10 09:28:23;;;;;;;29.73;10.47;;;;;;;4.03;nan;-23928.94;5031470;28;20175;-73
2023/01/10 09:30:48;;;;;;;30.60;10.63;;;;;;;4.47;nan;-23941.19;5031552;28;20225;-74
2023/01/10 09:33:14;;;;;;;34.70;11.37;;;;;;;4.34;nan;-23937.63;5029776;28;20305;-73
2023/01/10 09:35:40;;;;;;;53.40;10.67;;;;;;;4.59;nan;-23944.59;5031331;28;20618;-74
2023/01/10 09:38:10;;;;;;;27.63;9.90;;;;;;;4.46;nan;-23941.03;5031162;28;20172;-73
2023/01/10 09:40:54;;;;;;;23.83;10.13;;;;;;;4.51;nan;-23942.31;5030743;28;20230;-73
2023/01/10 09:43:29;;;;;;;41.80;10.67;;;;;;;4.57;nan;-23944.03;5022708;28;20205;-74
2023/01/10 09:46:24;;;;;;;26.20;9.30;;;;;;;4.62;nan;-23945.59;5034998;28;20175;-74
2023/01/10 09:49:11;;;;;;;17.03;9.50;;;;;;;4.69;nan;-23947.59;5033032;28;20645;-74
2023/01/10 09:51:41;;;;;;;22.17;9.30;;;;;;;4.67;nan;-23946.88;5034616;28;20163;-73
2023/01/10 09:54:14;;;;;;;28.87;10.80;;;;;;;4.52;nan;-23942.75;5034052;28;20183;-73
2023/01/10 09:56:40;;;;;;;28.93;10.60;;;;;;;4.75;nan;-23949.16;5035359;28;20246;-75
2023/01/10 09:59:14;;;;;;;35.27;11.63;;;;;;;4.42;nan;-23939.91;5035345;28;20293;-74
2023/01/10 10:01:39;;;;;;;29.37;11.33;;;;;;;4.67;nan;-23946.88;5034704;28;20226;-73
2023/01/10 10:04:26;;;;;;;34.47;12.57;;;;;;;5.10;nan;-23959.13;5034914;28;20175;-72
2023/01/10 10:06:52;;;;;;;32.43;10.63;;;;;;;5.11;nan;-23959.41;5034817;28;20159;-76
2023/01/10 10:09:30;;;;;;;29.40;12.03;;;;;;;5.18;nan;-23961.38;5034719;28;20552;-73
2023/01/10 10:12:24;;;;;;;42.90;11.47;;;;;;;5.26;nan;-23963.66;5034833;28;20649;-73
2023/01/10 10:15:20;;;;;;;34.33;12.53;;;;;;;5.12;nan;-23959.69;5035217;28;20167;-73
2023/01/10 10:18:17;;;;;;;22.87;11.00;;;;;;;4.72;nan;-23948.31;5034731;28;20178;-75
2023/01/10 10:21:24;;;;;;;27.97;8.40;;;;;;;5.12;nan;-23959.69;5034798;28;20164;-75
2023/01/10 10:24:16;;;;;;;22.03;9.57;;;;;;;5.20;nan;-23961.97;5030744;28;20218;-74
2023/01/10 10:26:57;;;;;;;34.83;11.30;;;;;;;5.22;nan;-23962.53;5031081;28;20179;-74
2023/01/10 10:29:22;;;;;;;22.53;9.90;;;;;;;5.23;nan;-23962.81;5034647;28;20171;-74
2023/01/10 10:32:12;;;;;;;28.67;9.77;;;;;;;5.21;nan;-23962.09;5034150;28;20676;-73
2023/01/10 10:34:47;;;;;;;26.00;11.03;;;;;;;5.10;nan;-23959.13;5034189;28;20160;-74
2023/01/10 10:37:22;;;;;;;31.23;12.63;;;;;;;5.23;nan;-23962.81;5033741;28;20205;-74
2023/01/10 10:39:53;;;;;;;32.13;11.83;;;;;;;4.55;nan;-23943.47;5034506;28;20244;-75
2023/01/10 10:42:19;;;;;;;37.87;13.07;;;;;;;5.02;nan;-23956.84;5034309;28;20660;-73
2023/01/10 10:44:48;;;;;;;42.83;13.67;;;;;;;4.70;nan;-23947.88;5032906;28;20174;-73
2023/01/10 10:47:20;;;;;;;23.43;11.97;;;;;;;4.87;nan;-23952.56;5034499;28;20601;-74
2023/01/10 10:50:08;;;;;;;42.13;12.50;;;;;;;5.08;nan;-23958.53;5034539;28;20176;-74
2023/01/10 10:52:35;;;;;;;28.23;12.53;;;;;;;5.10;nan;-23958.97;5034777;28;20167;-74
2023/01/10 10:55:03;;;;;;;39.47;15.63;;;;;;;5.14;nan;-23960.25;5034679;28;20171;-74
2023/01/10 10:57:32;;;;;;;25.73;12.40;;;;;;;5.21;nan;-23962.09;5034751;28;20199;-73
2023/01/10 11:00:00;;;;;;;29.03;12.33;;;;;;;4.86;nan;-23952.44;5032034;28;20182;-74
2023/01/10 11:02:31;;;;;;;36.07;14.50;;;;;;;5.22;nan;-23962.53;5034066;28;20276;-75
2023/01/10 11:05:02;;;;;;;38.50;13.50;;;;;;;4.81;nan;-23951.00;5033177;28;20174;-75
2023/01/10 11:07:35;;;;;;;28.13;13.30;;;;;;;4.88;nan;-23952.84;5034055;28;20552;-75
2023/01/10 11:12:49;;;;;;;30.67;11.03;;;;;;;4.75;nan;-23949.31;5033800;28;20314;-74
2023/01/10 11:15:40;;;;;;;27.93;12.03;;;;;;;5.05;nan;-23957.53;5034466;28;20258;-74
2023/01/10 11:18:11;;;;;;;26.50;11.03;;;;;;;5.03;nan;-23956.97;5026519;28;20261;-73
2023/01/10 11:20:45;;;;;;;31.97;12.03;;;;;;;4.67;nan;-23946.88;5034037;28;20163;-73
2023/01/10 11:23:10;;;;;;;27.83;11.07;;;;;;;5.12;nan;-23959.53;5033913;28;20191;-74
2023/01/10 11:25:36;;;;;;;25.73;10.40;;;;;;;5.10;nan;-23959.13;5033787;28;20182;-75
2023/01/10 11:28:02;;;;;;;30.80;11.10;;;;;;;5.11;nan;-23959.41;5034391;28;20179;-75
2023/01/10 11:30:31;;;;;;;32.13;12.10;;;;;;;5.21;nan;-23962.09;5033535;28;20171;-73
2023/01/10 11:33:19;;;;;;;20.43;9.97;;;;;;;4.97;nan;-23955.41;5032554;28;20286;-74
2023/01/10 11:35:56;;;;;;;27.93;10.90;;;;;;;4.75;nan;-23949.16;5033659;28;20159;-73
2023/01/10 11:38:23;;;;;;;31.17;11.87;;;;;;;5.17;nan;-23960.97;5033911;28;20172;-73
2023/01/10 11:41:05;;;;;;;45.97;13.70;;;;;;;5.26;nan;-23963.53;5033593;28;20175;-74
2023/01/10 11:43:33;;;;;;;29.23;11.47;;;;;;;5.28;nan;-23964.22;5033405;28;20214;-73
2023/01/10 11:46:14;;;;;;;45.57;11.97;;;;;;;4.99;nan;-23956.00;5033604;28;20167;-73
2023/01/10 11:49:00;;;;;;;40.47;15.77;;;;;;;5.36;nan;-23966.22;5033753;28;20177;-72
2023/01/10 11:51:30;;;;;;;37.70;15.97;;;;;;;5.06;nan;-23957.97;5032903;28;20184;-73
2023/01/10 11:54:06;;;;;;;41.27;14.23;;;;;;;5.09;nan;-23958.81;5033154;28;20190;-72
2023/01/10 11:56:33;;;;;;;37.23;14.17;;;;;;;5.47;nan;-23969.34;5033248;28;20246;-71
2023/01/10 11:59:08;;;;;;;41.97;16.00;;;;;;;5.37;nan;-23966.66;5033550;28;20258;-71
2023/01/10 12:01:44;;;;;;;28.53;12.87;;;;;;;5.50;nan;-23970.22;5033567;28;20313;-72
2023/01/10 12:04:15;;;;;;;26.00;11.17;;;;;;;5.44;nan;-23968.63;5033157;28;20193;-71
2023/01/10 12:06:57;;;;;;;33.27;13.53;;;;;;;5.76;nan;-23977.59;5035487;28;20176;-71
2023/01/10 12:09:41;;;;;;;37.93;13.53;;;;;;;5.91;nan;-23981.72;5035674;28;20270;-70
2023/01/10 12:12:30;;;;;;;35.17;14.43;;;;;;;5.91;nan;-23981.72;5032950;28;20187;-70
2023/01/10 12:14:58;;;;;;;27.70;13.07;;;;;;;5.94;nan;-23982.72;5031686;28;20190;-71
2023/01/10 12:17:28;;;;;;;41.53;13.67;;;;;;;5.91;nan;-23981.72;5032469;28;20266;-71
2023/01/10 12:19:59;;;;;;;44.07;15.53;;;;;;;5.59;nan;-23972.75;5032533;28;20646;-71
2023/01/10 12:22:37;;;;;;;42.17;12.97;;;;;;;5.83;nan;-23979.59;5012696;28;20647;-71
2023/01/10 12:25:15;;;;;;;32.60;11.77;;;;;;;6.06;nan;-23985.97;5012714;28;20227;-71
2023/01/10 12:27:43;;;;;;;29.17;11.23;;;;;;;5.93;nan;-23982.28;5012286;28;20176;-71
2023/01/10 12:30:15;;;;;;;33.37;12.30;;;;;;;5.53;nan;-23971.19;5012372;28;20230;-70
2023/01/10 12:32:45;;;;;;;28.30;11.67;;;;;;;5.91;nan;-23981.72;5012221;28;20184;-72
2023/01/10 12:35:26;;;;;;;26.70;10.63;;;;;;;5.85;nan;-23980.16;5012264;28;20305;-72
2023/01/10 12:41:09;;;;;;;22.23;9.57;;;;;;;5.91;nan;-23981.72;5011888;28;20194;-71
2023/01/10 12:46:51;;;;;;;24.07;8.53;;;;;;;5.77;nan;-23977.88;5011973;28;20170;-70
2023/01/10 12:49:22;;;;;;;19.37;9.20;;;;;;;6.09;nan;-23986.97;5012131;28;20222;-71
2023/01/10 12:51:51;;;;;;;21.40;8.63;;;;;;;5.96;nan;-23983.28;5012787;28;20596;-70
2023/01/10 12:54:23;;;;;;;24.63;11.67;;;;;;;6.06;nan;-23986.13;5012683;28;20207;-70
2023/01/10 12:56:50;;;;;;;21.50;9.43;;;;;;;6.04;nan;-23985.41;5011986;28;20176;-70
2023/01/10 12:59:24;;;;;;;31.57;12.20;;;;;;;6.08;nan;-23986.69;5012199;28;20156;-70
2023/01/10 13:02:00;;;;;;;30.73;10.93;;;;;;;6.46;nan;-23997.34;5011880;28;20230;-70
2023/01/10 13:04:28;;;;;;;20.63;8.37;;;;;;;6.16;nan;-23988.97;5012098;28;20256;-69
2023/01/10 13:06:54;;;;;;;31.03;10.03;;;;;;;5.90;nan;-23981.56;5011511;28;20206;-69
2023/01/10 13:09:21;;;;;;;24.53;10.17;;;;;;;6.41;nan;-23995.91;5011612;28;20722;-71
2023/01/10 13:12:05;;;;;;;24.27;9.97;;;;;;;6.40;nan;-23995.63;5011617;28;20168;-72
2023/01/10 13:14:38;;;;;;;20.13;9.53;;;;;;;6.42;nan;-23996.06;5029370;28;20688;-70
2023/01/10 13:17:33;;;;;;;26.83;10.10;;;;;;;5.97;nan;-23983.41;5031626;28;20552;-71
2023/01/10 13:20:20;;;;;;;19.23;8.63;;;;;;;6.43;nan;-23996.34;5030933;28;20175;-71
2023/01/10 13:22:57;;;;;;;17.97;7.90;;;;;;;6.50;nan;-23998.34;5030867;28;20201;-70
2023/01/10 13:25:34;;;;;;;18.93;8.97;;;;;;;6.33;nan;-23993.66;5030631;28;20690;-71
2023/01/10 13:28:06;;;;;;;20.13;9.27;;;;;;;6.49;nan;-23998.19;5031309;28;20163;-70
2023/01/10 13:30:44;;;;;;;25.53;9.90;;;;;;;6.58;nan;-24000.75;5031064;28;20206;-71
2023/01/10 13:33:31;;;;;;;16.50;8.20;;;;;;;6.88;nan;-24009.13;5030982;28;20190;-71
2023/01/10 13:36:16;;;;;;;25.80;10.67;;;;;;;6.78;nan;-24006.13;5031269;28;20225;-70
2023/01/10 13:38:48;;;;;;;22.57;11.23;;;;;;;7.26;nan;-24019.63;5030366;28;20187;-71
2023/01/10 13:44:10;;;;;;;25.27;9.63;;;;;;;6.57;nan;-24000.31;5031204;28;20225;-71
2023/01/10 13:46:44;;;;;;;26.07;10.00;;;;;;;7.11;nan;-24015.50;5031075;28;20194;-71
2023/01/10 13:49:09;;;;;;;20.77;10.63;;;;;;;7.17;nan;-24017.06;5029895;28;20559;-71
2023/01/10 13:51:35;;;;;;;19.70;9.27;;;;;;;7.06;nan;-24014.09;5029506;28;20197;-71
2023/01/10 13:54:15;;;;;;;27.70;11.07;;;;;;;6.92;nan;-24010.13;5045995;28;20195;-70
2023/01/10 13:56:43;;;;;;;24.80;10.23;;;;;;;6.79;nan;-24006.44;5013369;28;20275;-70
2023/01/10 14:02:32;;;;;;;19.97;9.73;;;;;;;6.77;nan;-24005.84;5012815;28;20254;-71
2023/01/10 14:05:18;;;;;;;16.13;9.20;;;;;;;6.81;nan;-24007.00;5021601;28;20183;-71
2023/01/10 14:07:48;;;;;;;22.53;9.77;;;;;;;6.86;nan;-24008.41;5031228;28;20232;-70
2023/01/10 14:10:24;;;;;;;23.53;9.20;;;;;;;6.59;nan;-24000.88;5031277;28;20175;-71
2023/01/10 14:12:55;;;;;;;20.33;10.00;;;;;;;6.20;nan;-23989.97;5031080;28;20171;-72
2023/01/10 14:15:27;;;;;;;25.73;9.03;;;;;;;6.49;nan;-23998.06;5031001;28;20172;-72
2023/01/10 14:18:05;;;;;;;23.17;9.27;;;;;;;6.36;nan;-23994.34;5030878;28;20594;-71
2023/01/10 14:20:33;;;;;;;18.97;9.80;;;;;;;6.40;nan;-23995.50;5031179;28;20637;-71
2023/01/10 14:23:07;;;;;;;22.13;9.93;;;;;;;6.39;nan;-23995.22;5030754;28;20746;-71
2023/01/10 14:25:35;;;;;;;23.40;10.90;;;;;;;6.33;nan;-23993.50;5030865;28;20167;-71
2023/01/10 14:28:02;;;;;;;23.47;10.40;;;;;;;5.86;nan;-23980.44;5030929;28;20168;-70
2023/01/10 14:30:37;;;;;;;22.50;9.47;;;;;;;6.12;nan;-23987.69;5030943;28;20171;-70
2023/01/10 14:33:18;;;;;;;20.50;10.63;;;;;;;6.11;nan;-23987.53;5030847;28;20168;-70
2023/01/10 14:35:48;;;;;;;20.73;9.13;;;;;;;6.04;nan;-23985.41;5033549;28;20167;-71
2023/01/10 14:38:23;;;;;;;15.13;8.33;;;;;;;5.89;nan;-23981.16;5035146;28;20156;-71
2023/01/10 14:40:51;;;;;;;17.40;9.70;;;;;;;5.91;nan;-23981.88;5034553;28;20167;-70
2023/01/10 14:43:21;;;;;;;17.03;8.50;;;;;;;5.93;nan;-23982.44;5033526;28;20223;-70
2023/01/10 14:46:10;;;;;;;17.40;8.37;;;;;;;5.72;nan;-23976.47;5034510;28;20199;-71
2023/01/10 14:48:45;;;;;;;17.33;8.30;;;;;;;6.07;nan;-23986.41;5034218;28;20210;-70
2023/01/10 14:51:25;;;;;;;17.50;7.67;;;;;;;5.76;nan;-23977.59;5034294;28;20254;-71
2023/01/10 14:53:56;;;;;;;18.87;9.40;;;;;;;5.85;nan;-23980.00;5034155;28;20175;-71
2023/01/10 14:56:27;;;;;;;18.53;9.57;;;;;;;5.74;nan;-23977.03;5034282;28;20168;-71
2023/01/10 14:58:53;;;;;;;22.40;10.03;;;;;;;5.92;nan;-23982.16;5032098;28;20186;-71
2023/01/10 15:01:29;;;;;;;14.00;7.80;;;;;;;5.72;nan;-23976.59;5037565;28;20215;-71
2023/01/10 15:03:56;;;;;;;20.63;8.37;;;;;;;5.91;nan;-23981.88;5053701;28;20175;-73
2023/01/10 15:06:22;;;;;;;13.83;7.03;;;;;;;5.58;nan;-23972.47;5053691;28;20679;-70
2023/01/10 15:08:59;;;;;;;18.73;7.90;;;;;;;5.93;nan;-23982.44;5053765;28;20701;-71
2023/01/10 15:11:26;;;;;;;20.13;8.50;;;;;;;5.96;nan;-23983.13;5053782;28;20171;-71
2023/01/10 15:13:56;;;;;;;13.97;6.97;;;;;;;5.99;nan;-23984.00;5053576;28;20195;-70
2023/01/10 15:16:23;;;;;;;15.87;7.50;;;;;;;5.64;nan;-23974.19;5039643;28;20214;-71
2023/01/10 15:18:50;;;;;;;17.10;7.63;;;;;;;5.95;nan;-23983.00;5026948;28;20195;-71
2023/01/10 15:21:18;;;;;;;19.83;8.77;;;;;;;5.69;nan;-23975.59;5029151;28;20190;-70
2023/01/10 15:23:45;;;;;;;16.87;8.10;;;;;;;5.90;nan;-23981.56;5029540;28;20210;-72
2023/01/10 15:26:15;;;;;;;14.33;7.67;;;;;;;5.78;nan;-23978.16;5013156;28;20183;-72
2023/01/10 15:28:47;;;;;;;18.13;8.07;;;;;;;5.84;nan;-23979.72;5033098;28;20186;-71
2023/01/10 15:31:15;;;;;;;19.37;8.43;;;;;;;5.94;nan;-23982.56;5032480;28;20187;-73
2023/01/10 15:33:44;;;;;;;22.73;8.40;;;;;;;5.71;nan;-23976.31;5032751;28;20184;-70
2023/01/10 15:36:17;;;;;;;16.43;7.87;;;;;;;5.74;nan;-23977.16;5033765;28;20206;-71
2023/01/10 15:38:46;;;;;;;14.00;7.77;;;;;;;5.99;nan;-23984.00;5032612;28;20190;-71
2023/01/10 15:41:18;;;;;;;15.23;7.47;;;;;;;5.73;nan;-23976.88;5025435;28;20647;-71
2023/01/10 15:43:44;;;;;;;16.03;8.27;;;;;;;5.95;nan;-23983.00;5013262;28;20199;-71
2023/01/10 15:46:25;;;;;;;20.77;7.87;;;;;;;5.60;nan;-23973.03;5013031;28;20187;-72
2023/01/10 15:49:00;;;;;;;14.83;6.97;;;;;;;5.69;nan;-23975.75;5013348;28;20247;-72
2023/01/10 15:51:25;;;;;;;13.90;7.97;;;;;;;5.99;nan;-23984.00;5013043;28;20180;-71
2023/01/10 15:54:24;;;;;;;14.07;6.90;;;;;;;5.95;nan;-23982.84;5016579;28;20286;-71
2023/01/10 15:57:21;;;;;;;12.27;6.07;;;;;;;6.03;nan;-23985.28;5026251;28;20206;-72
2023/01/10 15:59:49;;;;;;;11.80;5.67;;;;;;;5.55;nan;-23971.75;5025798;28;20188;-72
2023/01/10 16:02:27;;;;;;;14.23;5.57;;;;;;;6.18;nan;-23989.38;5027140;28;20233;-71
2023/01/10 16:05:04;;;;;;;12.40;8.47;;;;;;;5.94;nan;-23982.72;5028246;28;20214;-71
2023/01/10 16:07:33;;;;;;;9.93;6.43;;;;;;;5.73;nan;-23976.75;5031613;28;20191;-72
2023/01/10 16:10:27;;;;;;;20.03;7.03;;;;;;;6.21;nan;-23990.25;5032498;28;20721;-72
2023/01/10 16:15:51;;;;;;;11.17;5.40;;;;;;;6.18;nan;-23989.53;5031850;28;20316;-70
2023/01/10 16:18:17;;;;;;;11.03;5.13;;;;;;;6.09;nan;-23986.97;5034165;28;20170;-69
2023/01/10 16:20:44;;;;;;;13.47;7.73;;;;;;;6.11;nan;-23987.53;5040219;28;20191;-71
2023/01/10 16:23:29;;;;;;;14.23;7.03;;;;;;;5.86;nan;-23980.44;5030744;28;20601;-72
2023/01/10 16:25:57;;;;;;;14.90;8.10;;;;;;;6.44;nan;-23996.63;5012243;28;20725;-72
2023/01/10 16:28:26;;;;;;;13.57;7.43;;;;;;;6.68;nan;-24003.31;5020077;28;20181;-72
2023/01/10 16:30:51;;;;;;;13.23;6.97;;;;;;;6.73;nan;-24004.72;5032617;28;20224;-71
2023/01/10 16:33:23;;;;;;;12.40;6.43;;;;;;;6.35;nan;-23994.06;5032348;28;20266;-72
2023/01/10 16:35:52;;;;;;;11.87;6.27;;;;;;;6.55;nan;-23999.75;5031992;28;20171;-73
2023/01/10 16:38:19;;;;;;;9.07;5.87;;;;;;;6.65;nan;-24002.59;5032223;28;20175;-72
2023/01/10 16:40:59;;;;;;;9.20;5.87;;;;;;;6.24;nan;-23990.94;5032449;28;20176;-71
2023/01/10 16:43:27;;;;;;;10.43;5.83;;;;;;;6.49;nan;-23998.06;5032052;28;20190;-72
2023/01/10 16:45:58;;;;;;;8.93;5.43;;;;;;;6.57;nan;-24000.31;5031741;28;20546;-71
2023/01/10 16:48:25;;;;;;;10.10;5.17;;;;;;;6.45;nan;-23997.06;5031442;28;20171;-72
2023/01/10 16:50:51;;;;;;;9.37;5.30;;;;;;;6.78;nan;-24006.13;5031343;28;20589;-72
2023/01/10 16:53:18;;;;;;;10.00;5.80;;;;;;;6.40;nan;-23995.50;5031533;28;20186;-71
2023/01/10 16:55:52;;;;;;;9.47;5.47;;;;;;;6.47;nan;-23997.47;5031898;28;20198;-71
2023/01/10 16:58:19;;;;;;;9.30;5.20;;;;;;;6.96;nan;-24011.25;5029810;28;20657;-71
2023/01/10 17:00:47;;;;;;;9.90;5.30;;;;;;;6.64;nan;-24002.31;5031207;28;20210;-71
2023/01/10 17:03:24;;;;;;;22.37;10.53;;;;;;;6.85;nan;-24008.13;5031561;28;20238;-71
2023/01/10 17:05:50;;;;;;;26.43;11.20;;;;;;;6.86;nan;-24008.41;5031852;28;20620;-72
2023/01/10 17:08:22;;;;;;;56.23;22.67;;;;;;;6.95;nan;-24010.97;5031458;28;20654;-69
2023/01/10 17:10:51;;;;;;;40.23;16.33;;;;;;;6.90;nan;-24009.53;5031896;28;20267;-70
2023/01/10 17:13:23;;;;;;;17.37;8.37;;;;;;;6.89;nan;-24009.25;5031450;28;20179;-70
2023/01/10 17:15:48;;;;;;;25.00;12.40;;;;;;;6.58;nan;-24000.59;5031590;28;20241;-71
2023/01/10 17:18:14;;;;;;;16.37;8.63;;;;;;;6.59;nan;-24001.03;5032131;28;20167;-71
2023/01/10 17:20:39;;;;;;;11.83;6.87;;;;;;;6.88;nan;-24009.13;5031659;28;20172;-71
2023/01/10 17:23:04;;;;;;;12.47;6.70;;;;;;;6.36;nan;-23994.34;5031597;28;20585;-71
2023/01/10 17:25:30;;;;;;;10.50;7.17;;;;;;;6.94;nan;-24010.69;5031751;28;20171;-71
2023/01/10 17:27:55;;;;;;;17.30;7.67;;;;;;;6.54;nan;-23999.47;5030544;28;20282;-71
2023/01/10 17:30:20;;;;;;;14.27;7.27;;;;;;;6.77;nan;-24006.00;5031512;28;20187;-72
2023/01/10 17:32:46;;;;;;;12.13;5.97;;;;;;;6.71;nan;-24004.28;5031770;28;20171;-71
2023/01/10 17:35:11;;;;;;;9.50;5.73;;;;;;;6.80;nan;-24006.72;5031588;28;20175;-71
2023/01/10 17:37:37;;;;;;;9.73;6.00;;;;;;;6.49;nan;-23998.19;5030469;28;20658;-72
2023/01/10 17:40:04;;;;;;;10.90;5.60;;;;;;;6.68;nan;-24003.31;5031673;28;20206;-71
2023/01/10 17:42:29;;;;;;;10.83;5.90;;;;;;;6.43;nan;-23996.34;5029800;28;20199;-71
2023/01/10 17:44:54;;;;;;;13.63;5.97;;;;;;;6.75;nan;-24005.44;5030828;28;20179;-71
2023/01/10 17:47:20;;;;;;;11.00;5.27;;;;;;;6.37;nan;-23994.66;5030606;28;20183;-71
2023/01/10 17:49:45;;;;;;;11.23;6.83;;;;;;;6.66;nan;-24002.88;5027423;28;20179;-71
2023/01/10 17:52:11;;;;;;;13.73;6.77;;;;;;;6.68;nan;-24003.31;5027523;28;20214;-71
2023/01/10 17:54:36;;;;;;;8.83;6.03;;;;;;;6.25;nan;-23991.38;5027931;28;20329;-71
2023/01/10 17:57:03;;;;;;;10.20;6.53;;;;;;;6.48;nan;-23997.91;5028657;28;20175;-71
2023/01/10 17:59:29;;;;;;;12.10;7.20;;;;;;;6.72;nan;-24004.44;5030437;28;20175;-71
2023/01/10 18:01:55;;;;;;;16.00;7.07;;;;;;;6.45;nan;-23997.06;5027163;28;20645;-71
2023/01/10 18:04:20;;;;;;;16.27;6.37;;;;;;;6.86;nan;-24008.56;5011134;28;20176;-71
2023/01/10 18:06:45;;;;;;;10.93;6.47;;;;;;;6.75;nan;-24005.28;5011291;28;20180;-70
2023/01/10 18:09:11;;;;;;;14.17;6.50;;;;;;;6.54;nan;-23999.63;5012016;28;20559;-71
2023/01/10 18:11:36;;;;;;;11.70;6.73;;;;;;;6.72;nan;-24004.44;5014953;28;20172;-71
2023/01/10 18:14:34;;;;;;;12.83;7.17;;;;;;;6.54;nan;-23999.63;5015285;28;20576;-74
2023/01/10 18:16:49;;;;;;;11.30;5.87;;;;;;;6.88;nan;-24009.13;5014312;28;20608;-71
2023/01/10 18:19:15;;;;;;;9.80;5.67;;;;;;;6.71;nan;-24004.28;5014713;28;20172;-72
2023/01/10 18:21:40;;;;;;;9.53;5.10;;;;;;;6.54;nan;-23999.63;5015089;28;20176;-71
2023/01/10 18:24:06;;;;;;;9.07;5.57;;;;;;;6.59;nan;-24001.03;5014821;28;20190;-71
2023/01/10 18:26:31;;;;;;;10.73;4.53;;;;;;;6.61;nan;-24001.59;5014983;28;20176;-71
2023/01/10 18:28:57;;;;;;;7.90;4.83;;;;;;;6.82;nan;-24007.41;5014934;28;20555;-72
2023/01/10 18:31:23;;;;;;;7.47;4.90;;;;;;;6.70;nan;-24004.00;5014796;28;20215;-71
2023/01/10 18:33:48;;;;;;;6.80;4.33;;;;;;;6.61;nan;-24001.47;5015015;28;20183;-70
2023/01/10 18:36:17;;;;;;;5.80;4.20;;;;;;;5.88;nan;-23981.00;5014865;28;20175;-71
2023/01/10 18:38:44;;;;;;;6.40;4.43;;;;;;;6.78;nan;-24006.28;5017446;28;20201;-71
2023/01/10 18:41:10;;;;;;;9.37;3.73;;;;;;;6.75;nan;-24005.28;5019077;28;20534;-71
2023/01/10 18:43:36;;;;;;;6.13;3.70;;;;;;;6.85;nan;-24008.25;5014487;28;20210;-71
2023/01/10 18:46:11;;;;;;;7.13;3.67;;;;;;;6.35;nan;-23994.22;5014300;28;20708;-71
2023/01/10 18:48:36;;;;;;;4.53;3.03;;;;;;;6.76;nan;-24005.56;5016419;28;20243;-73
2023/01/10 18:51:03;;;;;;;6.00;3.47;;;;;;;6.32;nan;-23993.22;5027049;28;20713;-71
2023/01/10 18:53:29;;;;;;;5.03;2.93;;;;;;;6.89;nan;-24009.41;5014574;28;20247;-72
2023/01/10 18:56:00;;;;;;;4.17;2.97;;;;;;;6.49;nan;-23998.19;5014445;28;20215;-70
2023/01/10 18:58:29;;;;;;;4.67;2.90;;;;;;;6.76;nan;-24005.56;5013954;28;20198;-70
2023/01/10 19:00:55;;;;;;;3.87;2.57;;;;;;;6.43;nan;-23996.34;5013988;28;20718;-70
2023/01/10 19:03:21;;;;;;;3.67;2.70;;;;;;;6.71;nan;-24004.28;5033714;28;20293;-72
2023/01/10 19:05:46;;;;;;;5.10;2.73;;;;;;;6.79;nan;-24006.56;5033294;28;20634;-71
2023/01/10 19:08:12;;;;;;;3.20;2.90;;;;;;;6.64;nan;-24002.44;5033812;28;20176;-71
2023/01/10 19:10:41;;;;;;;2.50;2.30;;;;;;;6.42;nan;-23996.22;5034014;28;20654;-71
2023/01/10 19:13:07;;;;;;;2.97;2.53;;;;;;;6.57;nan;-24000.31;5033745;28;20225;-72
2023/01/10 19:15:33;;;;;;;4.13;2.20;;;;;;;6.60;nan;-24001.31;5032710;28;20183;-71
2023/01/10 19:17:59;;;;;;;8.67;4.73;;;;;;;6.31;nan;-23992.94;5033421;28;20190;-70
2023/01/10 19:20:24;;;;;;;8.53;3.87;;;;;;;6.66;nan;-24003.00;5033134;28;20167;-71
2023/01/10 19:22:49;;;;;;;3.83;2.50;;;;;;;6.24;nan;-23990.94;5032808;28;20307;-70